sensor_id;sensor_type;location;lat;lon;timestamp;P1;durP1;ratioP1;P2;durP2;ratioP2
56593;SDS011;42474;51.660;5.824;2023-07-16T00:00:51;6.08;;;3.37;;
56593;SDS011;42474;51.660;5.824;2023-07-16T00:04:51;5.83;;;2.72;;
56593;SDS011;42474;51.660;5.824;2023-07-16T00:08:51;6.27;;;2.73;;
56593;SDS011;42474;51.660;5.824;2023-07-16T00:12:51;6.14;;;2.57;;
56593;SDS011;42474;51.660;5.824;2023-07-16T00:16:51;5.1;;;2.76;;
56593;SDS011;42474;51.660;5.824;2023-07-16T00:20:51;5.69;;;2.61;;
56593;SDS011;42474;51.660;5.824;2023-07-16T00:24:51;5.76;;;2.36;;
56593;SDS011;42474;51.660;5.824;2023-07-16T00:28:51;5.65;;;2.24;;
56593;SDS011;42474;51.660;5.824;2023-07-16T00:32:51;4.58;;;2.16;;
56593;SDS011;42474;51.660;5.824;2023-07-16T00:36:51;5.75;;;2.61;;
56593;SDS011;42474;51.660;5.824;2023-07-16T00:40:51;4.5;;;2.33;;
56593;SDS011;42474;51.660;5.824;2023-07-16T00:44:51;3.65;;;2.53;;
56593;SDS011;42474;51.660;5.824;2023-07-16T00:48:51;7.12;;;2.93;;
56593;SDS011;42474;51.660;5.824;2023-07-16T00:52:51;5.08;;;3.2;;
56593;SDS011;42474;51.660;5.824;2023-07-16T00:56:51;6.43;;;3.27;;
56593;SDS011;42474;51.660;5.824;2023-07-16T01:00:51;5.59;;;3.18;;
56593;SDS011;42474;51.660;5.824;2023-07-16T01:04:51;4.54;;;2.78;;
56593;SDS011;42474;51.660;5.824;2023-07-16T01:08:56;5;;;2.93;;
56593;SDS011;42474;51.660;5.824;2023-07-16T01:12:53;6.13;;;3.12;;
56593;SDS011;42474;51.660;5.824;2023-07-16T01:16:51;6.13;;;2.9;;
56593;SDS011;42474;51.660;5.824;2023-07-16T01:20:51;3.85;;;2.76;;
56593;SDS011;42474;51.660;5.824;2023-07-16T01:25:03;6.35;;;3.1;;
56593;SDS011;42474;51.660;5.824;2023-07-16T01:29:28;7.91;;;3.46;;
56593;SDS011;42474;51.660;5.824;2023-07-16T01:32:51;4.84;;;3.18;;
56593;SDS011;42474;51.660;5.824;2023-07-16T01:36:51;5.03;;;2.97;;
56593;SDS011;42474;51.660;5.824;2023-07-16T01:40:51;6.05;;;3.17;;
56593;SDS011;42474;51.660;5.824;2023-07-16T01:44:51;5.3;;;3;;
56593;SDS011;42474;51.660;5.824;2023-07-16T01:48:51;5.41;;;2.71;;
56593;SDS011;42474;51.660;5.824;2023-07-16T01:52:51;6.76;;;3.05;;
56593;SDS011;42474;51.660;5.824;2023-07-16T01:56:51;5.28;;;2.83;;
56593;SDS011;42474;51.660;5.824;2023-07-16T02:00:51;6.91;;;3.07;;
56593;SDS011;42474;51.660;5.824;2023-07-16T02:04:51;4.94;;;3.02;;
56593;SDS011;42474;51.660;5.824;2023-07-16T02:08:51;7.08;;;3.07;;
56593;SDS011;42474;51.660;5.824;2023-07-16T02:12:51;6.39;;;3.3;;
56593;SDS011;42474;51.660;5.824;2023-07-16T02:16:51;5.82;;;2.8;;
56593;SDS011;42474;51.660;5.824;2023-07-16T02:20:51;4.88;;;2.96;;
56593;SDS011;42474;51.660;5.824;2023-07-16T02:24:51;5.58;;;2.99;;
56593;SDS011;42474;51.660;5.824;2023-07-16T02:28:51;5.06;;;2.7;;
56593;SDS011;42474;51.660;5.824;2023-07-16T02:32:51;7.32;;;3.27;;
56593;SDS011;42474;51.660;5.824;2023-07-16T02:36:51;6.15;;;3.11;;
56593;SDS011;42474;51.660;5.824;2023-07-16T02:40:51;5.98;;;3.11;;
56593;SDS011;42474;51.660;5.824;2023-07-16T02:44:51;5.88;;;4.11;;
56593;SDS011;42474;51.660;5.824;2023-07-16T02:48:51;5.82;;;3.11;;
56593;SDS011;42474;51.660;5.824;2023-07-16T02:52:51;6.04;;;3.01;;
56593;SDS011;42474;51.660;5.824;2023-07-16T02:56:51;5.75;;;3.26;;
56593;SDS011;42474;51.660;5.824;2023-07-16T03:00:51;5.57;;;3.17;;
56593;SDS011;42474;51.660;5.824;2023-07-16T03:04:51;8.14;;;3.4;;
56593;SDS011;42474;51.660;5.824;2023-07-16T03:08:51;5.83;;;3.29;;
56593;SDS011;42474;51.660;5.824;2023-07-16T03:12:51;4.45;;;3.18;;
56593;SDS011;42474;51.660;5.824;2023-07-16T03:16:51;5.77;;;3.03;;
56593;SDS011;42474;51.660;5.824;2023-07-16T03:20:51;4.83;;;3.11;;
56593;SDS011;42474;51.660;5.824;2023-07-16T03:24:51;4.82;;;3.5;;
56593;SDS011;42474;51.660;5.824;2023-07-16T03:28:51;7.22;;;3.42;;
56593;SDS011;42474;51.660;5.824;2023-07-16T03:32:51;5.36;;;3;;
56593;SDS011;42474;51.660;5.824;2023-07-16T03:36:51;5.73;;;2.95;;
56593;SDS011;42474;51.660;5.824;2023-07-16T03:40:51;7.64;;;3.06;;
56593;SDS011;42474;51.660;5.824;2023-07-16T03:44:51;6.9;;;3.14;;
56593;SDS011;42474;51.660;5.824;2023-07-16T03:48:52;4.75;;;2.89;;
56593;SDS011;42474;51.660;5.824;2023-07-16T03:52:51;6.46;;;3.36;;
56593;SDS011;42474;51.660;5.824;2023-07-16T03:56:51;7.29;;;3.21;;
56593;SDS011;42474;51.660;5.824;2023-07-16T04:00:51;5.92;;;3.09;;
56593;SDS011;42474;51.660;5.824;2023-07-16T04:04:51;6.51;;;2.92;;
56593;SDS011;42474;51.660;5.824;2023-07-16T04:08:51;4.62;;;2.71;;
56593;SDS011;42474;51.660;5.824;2023-07-16T04:12:51;4.99;;;3.02;;
56593;SDS011;42474;51.660;5.824;2023-07-16T04:16:51;6.46;;;3.15;;
56593;SDS011;42474;51.660;5.824;2023-07-16T04:20:51;6.29;;;2.66;;
56593;SDS011;42474;51.660;5.824;2023-07-16T04:24:51;8.16;;;3.28;;
56593;SDS011;42474;51.660;5.824;2023-07-16T04:28:51;7.3;;;2.79;;
56593;SDS011;42474;51.660;5.824;2023-07-16T04:32:51;4.95;;;2.89;;
56593;SDS011;42474;51.660;5.824;2023-07-16T04:36:51;9.08;;;3;;
56593;SDS011;42474;51.660;5.824;2023-07-16T04:44:51;5.42;;;2.95;;
56593;SDS011;42474;51.660;5.824;2023-07-16T04:48:51;6.94;;;3.09;;
56593;SDS011;42474;51.660;5.824;2023-07-16T04:52:51;5.81;;;2.83;;
56593;SDS011;42474;51.660;5.824;2023-07-16T04:56:51;5.23;;;2.85;;
56593;SDS011;42474;51.660;5.824;2023-07-16T05:00:51;5.89;;;2.9;;
56593;SDS011;42474;51.660;5.824;2023-07-16T05:04:51;5.83;;;3.08;;
56593;SDS011;42474;51.660;5.824;2023-07-16T05:08:51;5.49;;;2.74;;
56593;SDS011;42474;51.660;5.824;2023-07-16T05:12:51;10.21;;;3.18;;
56593;SDS011;42474;51.660;5.824;2023-07-16T05:16:51;8.08;;;3.24;;
56593;SDS011;42474;51.660;5.824;2023-07-16T05:20:51;8.86;;;3.52;;
56593;SDS011;42474;51.660;5.824;2023-07-16T05:24:51;7.01;;;3.61;;
56593;SDS011;42474;51.660;5.824;2023-07-16T05:28:51;7.83;;;3.55;;
56593;SDS011;42474;51.660;5.824;2023-07-16T05:32:51;6.9;;;3.53;;
56593;SDS011;42474;51.660;5.824;2023-07-16T05:36:53;8.09;;;3.88;;
56593;SDS011;42474;51.660;5.824;2023-07-16T05:40:51;7.91;;;3.61;;
56593;SDS011;42474;51.660;5.824;2023-07-16T05:44:51;5.68;;;3.81;;
56593;SDS011;42474;51.660;5.824;2023-07-16T05:48:51;10.35;;;4.28;;
56593;SDS011;42474;51.660;5.824;2023-07-16T05:52:51;8.77;;;4.06;;
56593;SDS011;42474;51.660;5.824;2023-07-16T05:56:51;8.14;;;3.48;;
56593;SDS011;42474;51.660;5.824;2023-07-16T06:00:51;6.58;;;4.13;;
56593;SDS011;42474;51.660;5.824;2023-07-16T06:04:51;7.98;;;4.02;;
56593;SDS011;42474;51.660;5.824;2023-07-16T06:08:52;8.2;;;4.64;;
56593;SDS011;42474;51.660;5.824;2023-07-16T06:12:51;8.28;;;4.28;;
56593;SDS011;42474;51.660;5.824;2023-07-16T06:16:51;7.54;;;3.94;;
56593;SDS011;42474;51.660;5.824;2023-07-16T06:20:51;8.4;;;4.61;;
56593;SDS011;42474;51.660;5.824;2023-07-16T06:24:51;9.35;;;4.51;;
56593;SDS011;42474;51.660;5.824;2023-07-16T06:28:51;7.71;;;4.28;;
56593;SDS011;42474;51.660;5.824;2023-07-16T06:32:51;7.24;;;3.9;;
56593;SDS011;42474;51.660;5.824;2023-07-16T06:36:51;10.02;;;4.61;;
56593;SDS011;42474;51.660;5.824;2023-07-16T06:40:52;8.33;;;4.4;;
56593;SDS011;42474;51.660;5.824;2023-07-16T06:44:51;7.18;;;3.83;;
56593;SDS011;42474;51.660;5.824;2023-07-16T06:48:51;8.74;;;4.01;;
56593;SDS011;42474;51.660;5.824;2023-07-16T06:52:51;8.21;;;4.27;;
56593;SDS011;42474;51.660;5.824;2023-07-16T06:56:51;12.55;;;4.26;;
56593;SDS011;42474;51.660;5.824;2023-07-16T07:00:51;8.08;;;4.06;;
56593;SDS011;42474;51.660;5.824;2023-07-16T07:04:51;8.89;;;4.05;;
56593;SDS011;42474;51.660;5.824;2023-07-16T07:08:51;8.07;;;3.94;;
56593;SDS011;42474;51.660;5.824;2023-07-16T07:12:51;7.61;;;4.16;;
56593;SDS011;42474;51.660;5.824;2023-07-16T07:16:51;7.66;;;4.03;;
56593;SDS011;42474;51.660;5.824;2023-07-16T07:20:51;9.16;;;4;;
56593;SDS011;42474;51.660;5.824;2023-07-16T07:24:51;8.5;;;4.2;;
56593;SDS011;42474;51.660;5.824;2023-07-16T07:28:51;8.14;;;4.98;;
56593;SDS011;42474;51.660;5.824;2023-07-16T07:32:51;7.43;;;3.96;;
56593;SDS011;42474;51.660;5.824;2023-07-16T07:36:51;13.6;;;4.39;;
56593;SDS011;42474;51.660;5.824;2023-07-16T07:40:51;8.92;;;4.63;;
56593;SDS011;42474;51.660;5.824;2023-07-16T07:44:51;8.37;;;4.23;;
56593;SDS011;42474;51.660;5.824;2023-07-16T07:48:51;8.11;;;4.38;;
56593;SDS011;42474;51.660;5.824;2023-07-16T07:52:51;6.4;;;3.87;;
56593;SDS011;42474;51.660;5.824;2023-07-16T07:56:51;8.27;;;4.21;;
56593;SDS011;42474;51.660;5.824;2023-07-16T08:00:51;7.78;;;4.29;;
56593;SDS011;42474;51.660;5.824;2023-07-16T08:04:51;7.03;;;4.04;;
56593;SDS011;42474;51.660;5.824;2023-07-16T08:08:51;8;;;4.03;;
56593;SDS011;42474;51.660;5.824;2023-07-16T08:12:51;10.58;;;4.18;;
56593;SDS011;42474;51.660;5.824;2023-07-16T08:16:51;9.22;;;4.21;;
56593;SDS011;42474;51.660;5.824;2023-07-16T08:20:51;8.4;;;3.89;;
56593;SDS011;42474;51.660;5.824;2023-07-16T08:24:51;6.54;;;4.17;;
56593;SDS011;42474;51.660;5.824;2023-07-16T08:28:51;8.53;;;4.08;;
56593;SDS011;42474;51.660;5.824;2023-07-16T08:32:51;6.88;;;3.88;;
56593;SDS011;42474;51.660;5.824;2023-07-16T08:36:51;6.75;;;3.84;;
56593;SDS011;42474;51.660;5.824;2023-07-16T08:40:51;7.44;;;3.78;;
56593;SDS011;42474;51.660;5.824;2023-07-16T08:44:53;6.72;;;3.74;;
56593;SDS011;42474;51.660;5.824;2023-07-16T08:48:52;9.58;;;3.91;;
56593;SDS011;42474;51.660;5.824;2023-07-16T08:52:53;8.2;;;3.89;;
56593;SDS011;42474;51.660;5.824;2023-07-16T08:56:51;7.11;;;3.42;;
56593;SDS011;42474;51.660;5.824;2023-07-16T09:00:51;6.32;;;4.08;;
56593;SDS011;42474;51.660;5.824;2023-07-16T09:04:52;6.46;;;3.3;;
56593;SDS011;42474;51.660;5.824;2023-07-16T09:08:51;7.05;;;3.1;;
56593;SDS011;42474;51.660;5.824;2023-07-16T09:12:51;6.45;;;3.29;;
56593;SDS011;42474;51.660;5.824;2023-07-16T09:16:52;8.61;;;3.82;;
56593;SDS011;42474;51.660;5.824;2023-07-16T09:20:56;7.43;;;3.43;;
56593;SDS011;42474;51.660;5.824;2023-07-16T09:24:51;7.82;;;3.23;;
56593;SDS011;42474;51.660;5.824;2023-07-16T09:28:51;6.96;;;3.39;;
56593;SDS011;42474;51.660;5.824;2023-07-16T09:32:51;7.18;;;3.19;;
56593;SDS011;42474;51.660;5.824;2023-07-16T09:36:52;6.84;;;3.18;;
56593;SDS011;42474;51.660;5.824;2023-07-16T09:40:52;7.13;;;3.48;;
56593;SDS011;42474;51.660;5.824;2023-07-16T09:44:53;7.93;;;3.28;;
56593;SDS011;42474;51.660;5.824;2023-07-16T09:48:51;5.28;;;3.23;;
56593;SDS011;42474;51.660;5.824;2023-07-16T09:52:52;6.34;;;3.04;;
56593;SDS011;42474;51.660;5.824;2023-07-16T09:56:56;6.44;;;3.26;;
56593;SDS011;42474;51.660;5.824;2023-07-16T10:00:52;6.29;;;3.32;;
56593;SDS011;42474;51.660;5.824;2023-07-16T10:04:54;6.7;;;3.74;;
56593;SDS011;42474;51.660;5.824;2023-07-16T10:08:51;6.29;;;3.43;;
56593;SDS011;42474;51.660;5.824;2023-07-16T10:12:56;6.66;;;3.3;;
56593;SDS011;42474;51.660;5.824;2023-07-16T10:16:52;6.75;;;2.89;;
56593;SDS011;42474;51.660;5.824;2023-07-16T10:20:52;4.64;;;3.06;;
56593;SDS011;42474;51.660;5.824;2023-07-16T10:24:52;6.68;;;2.87;;
56593;SDS011;42474;51.660;5.824;2023-07-16T10:28:51;6.18;;;2.8;;
56593;SDS011;42474;51.660;5.824;2023-07-16T10:32:52;7.02;;;2.97;;
56593;SDS011;42474;51.660;5.824;2023-07-16T10:36:52;7.14;;;3.06;;
56593;SDS011;42474;51.660;5.824;2023-07-16T10:40:55;6.07;;;2.79;;
56593;SDS011;42474;51.660;5.824;2023-07-16T10:44:53;5.29;;;2.56;;
56593;SDS011;42474;51.660;5.824;2023-07-16T10:48:51;4.53;;;2.38;;
56593;SDS011;42474;51.660;5.824;2023-07-16T10:52:52;5.16;;;2.49;;
56593;SDS011;42474;51.660;5.824;2023-07-16T10:56:52;7.1;;;2.85;;
56593;SDS011;42474;51.660;5.824;2023-07-16T11:00:51;5.64;;;2.62;;
56593;SDS011;42474;51.660;5.824;2023-07-16T11:04:52;7.62;;;3.11;;
56593;SDS011;42474;51.660;5.824;2023-07-16T11:08:51;6.71;;;2.68;;
56593;SDS011;42474;51.660;5.824;2023-07-16T11:12:52;5.19;;;2.84;;
56593;SDS011;42474;51.660;5.824;2023-07-16T11:16:52;5.21;;;2.83;;
56593;SDS011;42474;51.660;5.824;2023-07-16T11:20:51;5.03;;;2.42;;
56593;SDS011;42474;51.660;5.824;2023-07-16T11:24:52;5.17;;;2.75;;
56593;SDS011;42474;51.660;5.824;2023-07-16T11:28:51;5.9;;;2.67;;
56593;SDS011;42474;51.660;5.824;2023-07-16T11:32:51;5.87;;;2.8;;
56593;SDS011;42474;51.660;5.824;2023-07-16T11:36:51;4.83;;;3.14;;
56593;SDS011;42474;51.660;5.824;2023-07-16T11:40:51;4.67;;;2.89;;
56593;SDS011;42474;51.660;5.824;2023-07-16T11:44:51;6.18;;;2.89;;
56593;SDS011;42474;51.660;5.824;2023-07-16T11:48:51;6.52;;;2.93;;
56593;SDS011;42474;51.660;5.824;2023-07-16T11:52:52;5.96;;;2.94;;
56593;SDS011;42474;51.660;5.824;2023-07-16T11:56:51;4.03;;;2.88;;
56593;SDS011;42474;51.660;5.824;2023-07-16T12:00:51;8.37;;;2.95;;
56593;SDS011;42474;51.660;5.824;2023-07-16T12:04:51;5.81;;;2.6;;
56593;SDS011;42474;51.660;5.824;2023-07-16T12:08:51;6.11;;;2.65;;
56593;SDS011;42474;51.660;5.824;2023-07-16T12:12:51;7.27;;;3.1;;
56593;SDS011;42474;51.660;5.824;2023-07-16T12:16:51;4.95;;;2.59;;
56593;SDS011;42474;51.660;5.824;2023-07-16T12:20:51;6.33;;;2.87;;
56593;SDS011;42474;51.660;5.824;2023-07-16T12:24:51;5.42;;;3;;
56593;SDS011;42474;51.660;5.824;2023-07-16T12:28:51;5.77;;;2.99;;
56593;SDS011;42474;51.660;5.824;2023-07-16T12:32:51;5.59;;;2.99;;
56593;SDS011;42474;51.660;5.824;2023-07-16T12:36:51;4.64;;;2.77;;
56593;SDS011;42474;51.660;5.824;2023-07-16T12:40:51;6.48;;;2.96;;
56593;SDS011;42474;51.660;5.824;2023-07-16T12:44:51;5.4;;;3.05;;
56593;SDS011;42474;51.660;5.824;2023-07-16T12:48:51;5.61;;;2.93;;
56593;SDS011;42474;51.660;5.824;2023-07-16T12:52:52;4.89;;;2.9;;
56593;SDS011;42474;51.660;5.824;2023-07-16T12:56:51;5.33;;;3.11;;
56593;SDS011;42474;51.660;5.824;2023-07-16T13:00:51;7.48;;;3.42;;
56593;SDS011;42474;51.660;5.824;2023-07-16T13:04:51;5.21;;;3.2;;
56593;SDS011;42474;51.660;5.824;2023-07-16T13:08:51;5.25;;;3.12;;
56593;SDS011;42474;51.660;5.824;2023-07-16T13:12:51;7.56;;;3.48;;
56593;SDS011;42474;51.660;5.824;2023-07-16T13:16:51;6.59;;;3.45;;
56593;SDS011;42474;51.660;5.824;2023-07-16T13:20:51;6.78;;;3.46;;
56593;SDS011;42474;51.660;5.824;2023-07-16T13:24:51;5.83;;;3.21;;
56593;SDS011;42474;51.660;5.824;2023-07-16T13:28:51;6.14;;;3.49;;
56593;SDS011;42474;51.660;5.824;2023-07-16T13:32:51;6.26;;;3.61;;
56593;SDS011;42474;51.660;5.824;2023-07-16T13:36:51;6.21;;;3.38;;
56593;SDS011;42474;51.660;5.824;2023-07-16T13:40:51;5.06;;;2.71;;
56593;SDS011;42474;51.660;5.824;2023-07-16T13:44:51;6.34;;;3.05;;
56593;SDS011;42474;51.660;5.824;2023-07-16T13:48:51;4.54;;;2.37;;
56593;SDS011;42474;51.660;5.824;2023-07-16T13:52:51;4.16;;;2.39;;
56593;SDS011;42474;51.660;5.824;2023-07-16T13:56:51;4.71;;;2.43;;
56593;SDS011;42474;51.660;5.824;2023-07-16T14:00:51;6.29;;;2.33;;
56593;SDS011;42474;51.660;5.824;2023-07-16T14:04:51;4.04;;;2.57;;
56593;SDS011;42474;51.660;5.824;2023-07-16T14:08:51;3.91;;;2.24;;
56593;SDS011;42474;51.660;5.824;2023-07-16T14:12:51;3.91;;;2.14;;
56593;SDS011;42474;51.660;5.824;2023-07-16T14:16:51;4.58;;;2.63;;
56593;SDS011;42474;51.660;5.824;2023-07-16T14:20:51;4.23;;;2.34;;
56593;SDS011;42474;51.660;5.824;2023-07-16T14:24:51;4.23;;;2.2;;
56593;SDS011;42474;51.660;5.824;2023-07-16T14:28:51;4.35;;;2.26;;
56593;SDS011;42474;51.660;5.824;2023-07-16T14:32:51;3.26;;;2.17;;
56593;SDS011;42474;51.660;5.824;2023-07-16T14:36:51;5.26;;;2.54;;
56593;SDS011;42474;51.660;5.824;2023-07-16T14:40:51;5.17;;;2.28;;
56593;SDS011;42474;51.660;5.824;2023-07-16T14:44:51;4.05;;;2.61;;
56593;SDS011;42474;51.660;5.824;2023-07-16T14:48:51;3.18;;;2.04;;
56593;SDS011;42474;51.660;5.824;2023-07-16T14:52:51;5.21;;;2.39;;
56593;SDS011;42474;51.660;5.824;2023-07-16T14:56:51;4.1;;;2.09;;
56593;SDS011;42474;51.660;5.824;2023-07-16T15:00:52;4.17;;;2.12;;
56593;SDS011;42474;51.660;5.824;2023-07-16T15:04:51;3.59;;;2;;
56593;SDS011;42474;51.660;5.824;2023-07-16T15:08:51;5.19;;;2.45;;
56593;SDS011;42474;51.660;5.824;2023-07-16T15:12:51;7.22;;;2.81;;
56593;SDS011;42474;51.660;5.824;2023-07-16T15:16:51;5.1;;;2.81;;
56593;SDS011;42474;51.660;5.824;2023-07-16T15:20:55;5.52;;;2.84;;
56593;SDS011;42474;51.660;5.824;2023-07-16T15:24:51;6.78;;;3.28;;
56593;SDS011;42474;51.660;5.824;2023-07-16T15:28:51;6.82;;;3.04;;
56593;SDS011;42474;51.660;5.824;2023-07-16T15:32:51;4.97;;;2.77;;
56593;SDS011;42474;51.660;5.824;2023-07-16T15:36:51;4.52;;;2.57;;
56593;SDS011;42474;51.660;5.824;2023-07-16T15:40:52;5.14;;;2.57;;
56593;SDS011;42474;51.660;5.824;2023-07-16T15:44:51;4.35;;;2;;
56593;SDS011;42474;51.660;5.824;2023-07-16T15:48:51;3.54;;;1.64;;
56593;SDS011;42474;51.660;5.824;2023-07-16T15:52:51;4.02;;;2.19;;
56593;SDS011;42474;51.660;5.824;2023-07-16T15:56:51;3.46;;;1.92;;
56593;SDS011;42474;51.660;5.824;2023-07-16T16:00:51;4.76;;;2.5;;
56593;SDS011;42474;51.660;5.824;2023-07-16T16:04:51;4.92;;;2.38;;
56593;SDS011;42474;51.660;5.824;2023-07-16T16:08:51;4.37;;;2.2;;
56593;SDS011;42474;51.660;5.824;2023-07-16T16:12:51;5.55;;;2.18;;
56593;SDS011;42474;51.660;5.824;2023-07-16T16:16:51;4.25;;;2.17;;
56593;SDS011;42474;51.660;5.824;2023-07-16T16:20:51;4.99;;;2.41;;
56593;SDS011;42474;51.660;5.824;2023-07-16T16:24:51;5.31;;;2.22;;
56593;SDS011;42474;51.660;5.824;2023-07-16T16:28:51;4.09;;;1.72;;
56593;SDS011;42474;51.660;5.824;2023-07-16T16:32:51;3.62;;;1.87;;
56593;SDS011;42474;51.660;5.824;2023-07-16T16:36:51;3.11;;;1.51;;
56593;SDS011;42474;51.660;5.824;2023-07-16T16:40:51;4.32;;;1.85;;
56593;SDS011;42474;51.660;5.824;2023-07-16T16:44:51;2.66;;;1.61;;
56593;SDS011;42474;51.660;5.824;2023-07-16T16:48:51;5.76;;;1.84;;
56593;SDS011;42474;51.660;5.824;2023-07-16T16:52:51;2.62;;;1.62;;
56593;SDS011;42474;51.660;5.824;2023-07-16T16:56:51;3.52;;;1.74;;
56593;SDS011;42474;51.660;5.824;2023-07-16T17:00:52;2.74;;;1.28;;
56593;SDS011;42474;51.660;5.824;2023-07-16T17:04:52;4.15;;;1.67;;
56593;SDS011;42474;51.660;5.824;2023-07-16T17:08:52;3.06;;;1.92;;
56593;SDS011;42474;51.660;5.824;2023-07-16T17:12:51;3.27;;;1.71;;
56593;SDS011;42474;51.660;5.824;2023-07-16T17:16:51;4.23;;;1.61;;
56593;SDS011;42474;51.660;5.824;2023-07-16T17:20:52;6.53;;;1.78;;
56593;SDS011;42474;51.660;5.824;2023-07-16T17:24:51;2.87;;;1.61;;
56593;SDS011;42474;51.660;5.824;2023-07-16T17:28:51;2.65;;;1.32;;
56593;SDS011;42474;51.660;5.824;2023-07-16T17:32:51;4.51;;;1.48;;
56593;SDS011;42474;51.660;5.824;2023-07-16T17:36:51;2.44;;;1.22;;
56593;SDS011;42474;51.660;5.824;2023-07-16T17:40:51;3.07;;;1.56;;
56593;SDS011;42474;51.660;5.824;2023-07-16T17:44:51;2.37;;;1.33;;
56593;SDS011;42474;51.660;5.824;2023-07-16T17:48:51;2.76;;;1.24;;
56593;SDS011;42474;51.660;5.824;2023-07-16T17:52:51;2.71;;;1.26;;
56593;SDS011;42474;51.660;5.824;2023-07-16T17:56:53;2.26;;;1.17;;
56593;SDS011;42474;51.660;5.824;2023-07-16T18:00:54;3;;;1.42;;
56593;SDS011;42474;51.660;5.824;2023-07-16T18:04:51;2.35;;;1.2;;
56593;SDS011;42474;51.660;5.824;2023-07-16T18:08:51;2.25;;;1.28;;
56593;SDS011;42474;51.660;5.824;2023-07-16T18:12:51;3.66;;;1.58;;
56593;SDS011;42474;51.660;5.824;2023-07-16T18:16:51;4.3;;;1.7;;
56593;SDS011;42474;51.660;5.824;2023-07-16T18:20:51;3.4;;;1.85;;
56593;SDS011;42474;51.660;5.824;2023-07-16T18:24:51;3.9;;;2.02;;
56593;SDS011;42474;51.660;5.824;2023-07-16T18:28:51;3.22;;;2.09;;
56593;SDS011;42474;51.660;5.824;2023-07-16T18:32:51;2.72;;;1.84;;
56593;SDS011;42474;51.660;5.824;2023-07-16T18:36:51;3.95;;;2.04;;
56593;SDS011;42474;51.660;5.824;2023-07-16T18:40:51;3.4;;;1.79;;
56593;SDS011;42474;51.660;5.824;2023-07-16T18:44:52;3.2;;;2.04;;
56593;SDS011;42474;51.660;5.824;2023-07-16T18:48:51;3.87;;;2.23;;
56593;SDS011;42474;51.660;5.824;2023-07-16T18:52:51;3.48;;;2.02;;
56593;SDS011;42474;51.660;5.824;2023-07-16T18:56:51;4.65;;;2.27;;
56593;SDS011;42474;51.660;5.824;2023-07-16T19:00:52;3.39;;;2.11;;
56593;SDS011;42474;51.660;5.824;2023-07-16T19:04:51;5.11;;;2.53;;
56593;SDS011;42474;51.660;5.824;2023-07-16T19:08:51;3.97;;;2.29;;
56593;SDS011;42474;51.660;5.824;2023-07-16T19:12:51;3.91;;;2.33;;
56593;SDS011;42474;51.660;5.824;2023-07-16T19:16:51;4.62;;;2.69;;
56593;SDS011;42474;51.660;5.824;2023-07-16T19:20:51;4.93;;;2.6;;
56593;SDS011;42474;51.660;5.824;2023-07-16T19:24:52;4.04;;;2.44;;
56593;SDS011;42474;51.660;5.824;2023-07-16T19:28:51;6.81;;;2.86;;
56593;SDS011;42474;51.660;5.824;2023-07-16T19:32:51;4.85;;;2.36;;
56593;SDS011;42474;51.660;5.824;2023-07-16T19:36:52;4.12;;;2.5;;
56593;SDS011;42474;51.660;5.824;2023-07-16T19:40:51;4.16;;;2.94;;
56593;SDS011;42474;51.660;5.824;2023-07-16T19:44:51;5.44;;;2.47;;
56593;SDS011;42474;51.660;5.824;2023-07-16T19:48:52;4.59;;;2.48;;
56593;SDS011;42474;51.660;5.824;2023-07-16T19:52:51;5.11;;;2.9;;
56593;SDS011;42474;51.660;5.824;2023-07-16T19:56:52;5.37;;;2.77;;
56593;SDS011;42474;51.660;5.824;2023-07-16T20:00:52;3.84;;;2.32;;
56593;SDS011;42474;51.660;5.824;2023-07-16T20:04:51;4.71;;;2.91;;
56593;SDS011;42474;51.660;5.824;2023-07-16T20:08:51;3.94;;;2.47;;
56593;SDS011;42474;51.660;5.824;2023-07-16T20:12:51;3.31;;;2.15;;
56593;SDS011;42474;51.660;5.824;2023-07-16T20:16:51;3.87;;;2.55;;
56593;SDS011;42474;51.660;5.824;2023-07-16T20:20:51;5.15;;;2.46;;
56593;SDS011;42474;51.660;5.824;2023-07-16T20:24:52;5.95;;;2.66;;
56593;SDS011;42474;51.660;5.824;2023-07-16T20:28:51;6.48;;;2.49;;
56593;SDS011;42474;51.660;5.824;2023-07-16T20:32:52;5.33;;;2.56;;
56593;SDS011;42474;51.660;5.824;2023-07-16T20:36:51;4.98;;;2.85;;
56593;SDS011;42474;51.660;5.824;2023-07-16T20:40:51;5.75;;;2.8;;
56593;SDS011;42474;51.660;5.824;2023-07-16T20:45:12;4.84;;;2.47;;
56593;SDS011;42474;51.660;5.824;2023-07-16T20:48:51;3.91;;;2.47;;
56593;SDS011;42474;51.660;5.824;2023-07-16T20:52:53;5.26;;;2.65;;
56593;SDS011;42474;51.660;5.824;2023-07-16T20:56:51;5.86;;;2.78;;
56593;SDS011;42474;51.660;5.824;2023-07-16T21:00:52;5.24;;;2.35;;
56593;SDS011;42474;51.660;5.824;2023-07-16T21:04:51;4.17;;;2.58;;
56593;SDS011;42474;51.660;5.824;2023-07-16T21:08:51;5.02;;;2.54;;
56593;SDS011;42474;51.660;5.824;2023-07-16T21:12:53;5.31;;;2.54;;
56593;SDS011;42474;51.660;5.824;2023-07-16T21:16:51;5.83;;;2.62;;
56593;SDS011;42474;51.660;5.824;2023-07-16T21:20:51;6.18;;;2.53;;
56593;SDS011;42474;51.660;5.824;2023-07-16T21:24:52;4.6;;;2.53;;
56593;SDS011;42474;51.660;5.824;2023-07-16T21:28:52;4.41;;;2.42;;
56593;SDS011;42474;51.660;5.824;2023-07-16T21:32:52;5.73;;;2.83;;
56593;SDS011;42474;51.660;5.824;2023-07-16T21:36:53;5.69;;;3.14;;
56593;SDS011;42474;51.660;5.824;2023-07-16T21:40:51;5.57;;;2.76;;
56593;SDS011;42474;51.660;5.824;2023-07-16T21:44:51;3.87;;;2.59;;
56593;SDS011;42474;51.660;5.824;2023-07-16T21:48:52;6.75;;;2.83;;
56593;SDS011;42474;51.660;5.824;2023-07-16T21:52:52;5.83;;;2.57;;
56593;SDS011;42474;51.660;5.824;2023-07-16T21:56:51;5.24;;;2.65;;
56593;SDS011;42474;51.660;5.824;2023-07-16T22:04:52;4.82;;;2.77;;
56593;SDS011;42474;51.660;5.824;2023-07-16T22:08:52;5.19;;;2.64;;
56593;SDS011;42474;51.660;5.824;2023-07-16T22:12:52;7.93;;;2.94;;
56593;SDS011;42474;51.660;5.824;2023-07-16T22:16:52;5.07;;;2.98;;
56593;SDS011;42474;51.660;5.824;2023-07-16T22:20:52;4.88;;;2.67;;
56593;SDS011;42474;51.660;5.824;2023-07-16T22:24:52;4.26;;;2.77;;
56593;SDS011;42474;51.660;5.824;2023-07-16T22:28:52;5.91;;;2.64;;
56593;SDS011;42474;51.660;5.824;2023-07-16T22:32:52;4.13;;;2.68;;
56593;SDS011;42474;51.660;5.824;2023-07-16T22:36:52;6.95;;;3.17;;
56593;SDS011;42474;51.660;5.824;2023-07-16T22:40:52;5.5;;;2.65;;
56593;SDS011;42474;51.660;5.824;2023-07-16T22:44:52;5.92;;;2.9;;
56593;SDS011;42474;51.660;5.824;2023-07-16T22:48:52;7.27;;;3.01;;
56593;SDS011;42474;51.660;5.824;2023-07-16T22:52:52;5.72;;;3.15;;
56593;SDS011;42474;51.660;5.824;2023-07-16T22:56:52;4.82;;;2.73;;
56593;SDS011;42474;51.660;5.824;2023-07-16T23:00:52;4.63;;;2.92;;
56593;SDS011;42474;51.660;5.824;2023-07-16T23:04:52;5.47;;;2.96;;
56593;SDS011;42474;51.660;5.824;2023-07-16T23:08:52;7.6;;;3.2;;
56593;SDS011;42474;51.660;5.824;2023-07-16T23:12:52;5.07;;;2.91;;
56593;SDS011;42474;51.660;5.824;2023-07-16T23:16:52;4.74;;;2.72;;
56593;SDS011;42474;51.660;5.824;2023-07-16T23:20:53;5.89;;;2.66;;
56593;SDS011;42474;51.660;5.824;2023-07-16T23:24:52;5.26;;;3.2;;
56593;SDS011;42474;51.660;5.824;2023-07-16T23:28:52;6.94;;;3.17;;
56593;SDS011;42474;51.660;5.824;2023-07-16T23:32:52;9.22;;;3.17;;
56593;SDS011;42474;51.660;5.824;2023-07-16T23:36:52;4.83;;;3.02;;
56593;SDS011;42474;51.660;5.824;2023-07-16T23:40:52;5.96;;;3.18;;
56593;SDS011;42474;51.660;5.824;2023-07-16T23:44:52;6.01;;;2.98;;
56593;SDS011;42474;51.660;5.824;2023-07-16T23:48:52;6.63;;;3.35;;
56593;SDS011;42474;51.660;5.824;2023-07-16T23:52:52;5.62;;;3.23;;
56593;SDS011;42474;51.660;5.824;2023-07-16T23:56:52;4.62;;;2.62;;
